ESOK 151120Z AUTO 26005KT 9999 NCD 25/16 Q1016